Aérodrome :
LOGIN :

S'inscrire | Disclaimer

   EN    FR    IT 

 










Légende :    VFR   VFR Marginal   IFR   IFR Intensif   IFR Très Intensif
Visi : 
Plafond : 
>= 8 km
>= 3000ft
5 à 8 km
1000 à 3000 ft
1500m à 5 km
500 à 1000 ft
800 à 1500m
200 à 500 ft
< 800m
< 200 ft
Symboles :   Orages  Brouillard  Fortes neiges  Fortes précipitations  Vent > 20 kt
SIGMETs :   Divers  Orages  Givrage  Turbulence  Onde Orograph.  Cendres Volcan.






- Altitude de l'aérodrome : 66 ft
- Code IATA : AOK


LGKP - Karpathos

DERNIER METAR :
  • 251750Z AUTO 29021KT //// // ////// 20/16 Q1014 RE//

METARs EXPIRÉS :
  • 251720Z AUTO 29022G32KT //// // ////// 20/16 Q1014 RE//
  • 251650Z AUTO 28023KT //// // ////// 20/15 Q1014 RE//
  • 251620Z AUTO 28024KT //// // ////// 21/15 Q1014 RE//
  • 251550Z AUTO 30021KT //// // ////// 22/15 Q1014 RE//
  • 251520Z AUTO 29025KT //// // ////// 22/14 Q1014 RE//

TAF TAF LGKP
Valide du 25 à 18h jusqu'au 26 à 03h UTC


251700Z 2518/2603 31018G28KT 9999 FEW020
BECMG 2601/2603 32015KT



MET'MAP, la Météo Aéronautique d'un coup d'oeil ! - Copyright ORBIFLY Décembre 2007 - Disclaimer

ORBIFLY MET'MAP TEAM :

Programmation & Développement : Alexandra Zaïnal
Sur une idée originale de : Baudouin d'Aumeries
Assistance à la programmation : Marc-Olivier Méhu
Soutien technique & logistique : Manuel Goepfert

Contact : metmap@orbifly.com




SOURCES & CREDITS :

   NOAA